Time;durP1;ratioP1;P1;durP2;ratioP2;P2;SDS_P1;SDS_P2;PMS_P1;PMS_P2;Temp;Humidity;BMP_temperature;BMP_pressure;BME280_temperature;BME280_humidity;BME280_pressure;Samples;Min_cycle;Max_cycle;Signal;HPM_P1;HPM_P2
2021/03/17 00:03:14;;;;;;;9.90;3.80;;;;;;;;;;6221344;23;20618;-88
2021/03/17 00:06:37;;;;;;;9.07;3.47;;;;;;;;;;6219915;23;20615;-86
2021/03/17 00:10:00;;;;;;;8.13;3.40;;;;;;;;;;6220504;23;20486;-88
2021/03/17 00:13:24;;;;;;;8.93;3.67;;;;;;;;;;6222381;23;20168;-90
2021/03/17 00:16:49;;;;;;;9.40;3.83;;;;;;;;;;6219728;23;20167;-89
2021/03/17 00:20:12;;;;;;;7.33;3.70;;;;;;;;;;6220997;23;20677;-88
2021/03/17 00:23:35;;;;;;;13.53;4.20;;;;;;;;;;6220847;23;20191;-88
2021/03/17 00:26:59;;;;;;;10.50;3.97;;;;;;;;;;6219367;23;20191;-87
2021/03/17 00:30:22;;;;;;;7.73;3.53;;;;;;;;;;6220168;23;20214;-89
2021/03/17 00:33:46;;;;;;;8.43;4.00;;;;;;;;;;6221467;23;20219;-90
2021/03/17 00:37:10;;;;;;;9.03;3.73;;;;;;;;;;6219634;23;20167;-87
2021/03/17 00:40:33;;;;;;;11.53;3.70;;;;;;;;;;6221611;23;20497;-89
2021/03/17 00:43:57;;;;;;;9.57;3.80;;;;;;;;;;6220989;23;20225;-88
2021/03/17 00:47:20;;;;;;;12.80;3.73;;;;;;;;;;6220088;23;20167;-88
2021/03/17 00:50:26;;;;;;;12.87;4.20;;;;;;;;;;6219884;23;20175;-88
2021/03/17 00:53:30;;;;;;;11.30;3.83;;;;;;;;;;6219549;23;20171;-88
2021/03/17 00:56:39;;;;;;;10.17;3.90;;;;;;;;;;6218364;23;20171;-88
2021/03/17 00:59:44;;;;;;;11.83;3.77;;;;;;;;;;6220977;23;20166;-89
2021/03/17 01:02:48;;;;;;;11.90;4.33;;;;;;;;;;6220325;23;20251;-88
2021/03/17 01:05:53;;;;;;;10.90;4.87;;;;;;;;;;6220820;23;20171;-87
2021/03/17 01:08:57;;;;;;;14.13;4.90;;;;;;;;;;6220982;23;20543;-87
2021/03/17 01:12:02;;;;;;;11.03;4.70;;;;;;;;;;6225867;23;20206;-89
2021/03/17 01:15:07;;;;;;;10.93;5.13;;;;;;;;;;6221662;23;20210;-88
2021/03/17 01:18:12;;;;;;;13.80;5.33;;;;;;;;;;6238216;23;20714;-89
2021/03/17 01:21:17;;;;;;;14.00;5.40;;;;;;;;;;6221146;23;20196;-87
2021/03/17 01:24:22;;;;;;;9.57;5.00;;;;;;;;;;6221654;23;20884;-87
2021/03/17 01:27:26;;;;;;;11.50;5.90;;;;;;;;;;6221028;23;20171;-88
2021/03/17 01:30:32;;;;;;;13.27;6.07;;;;;;;;;;6221009;23;20190;-88
2021/03/17 01:33:36;;;;;;;12.83;5.63;;;;;;;;;;6221171;23;20225;-87
2021/03/17 01:36:41;;;;;;;12.73;6.03;;;;;;;;;;6222303;23;20255;-87
2021/03/17 01:39:46;;;;;;;15.07;6.30;;;;;;;;;;6222279;23;20163;-89
2021/03/17 01:42:50;;;;;;;14.33;6.70;;;;;;;;;;6222144;23;20499;-87
2021/03/17 01:45:54;;;;;;;12.93;6.50;;;;;;;;;;6221512;23;20707;-88
2021/03/17 01:48:59;;;;;;;12.43;6.40;;;;;;;;;;6221271;23;20298;-89
2021/03/17 01:52:04;;;;;;;16.20;6.80;;;;;;;;;;6221324;23;20166;-91
2021/03/17 01:55:09;;;;;;;13.97;6.67;;;;;;;;;;6219407;23;20409;-90
2021/03/17 01:58:14;;;;;;;16.30;7.10;;;;;;;;;;6220661;23;20654;-88
2021/03/17 02:01:18;;;;;;;18.23;8.57;;;;;;;;;;6219911;23;20218;-89
2021/03/17 02:04:22;;;;;;;17.03;7.80;;;;;;;;;;6220489;23;20167;-87
2021/03/17 02:07:28;;;;;;;17.97;9.13;;;;;;;;;;6218785;23;20175;-86
2021/03/17 02:10:32;;;;;;;14.90;8.50;;;;;;;;;;6219344;23;20171;-88
2021/03/17 02:13:53;;;;;;;18.97;8.50;;;;;;;;;;6218145;23;20171;-88
2021/03/17 02:16:58;;;;;;;16.53;8.60;;;;;;;;;;6218521;23;20195;-88
2021/03/17 02:20:19;;;;;;;22.23;9.67;;;;;;;;;;6219132;23;20167;-89
2021/03/17 02:23:27;;;;;;;23.87;9.10;;;;;;;;;;6219632;23;20171;-88
2021/03/17 02:26:49;;;;;;;20.00;9.50;;;;;;;;;;6218325;23;20246;-88
2021/03/17 02:30:00;;;;;;;24.43;9.77;;;;;;;;;;6218543;23;20186;-88
2021/03/17 02:33:19;;;;;;;16.03;8.50;;;;;;;;;;6219635;23;20195;-87
2021/03/17 02:36:29;;;;;;;19.70;8.87;;;;;;;;;;6218871;23;20168;-88
2021/03/17 02:39:35;;;;;;;19.90;9.23;;;;;;;;;;6219332;23;20207;-88
2021/03/17 02:42:44;;;;;;;18.00;8.30;;;;;;;;;;6218624;23;20166;-88
2021/03/17 02:45:51;;;;;;;18.77;9.47;;;;;;;;;;6218581;23;20702;-89
2021/03/17 02:49:03;;;;;;;21.03;8.90;;;;;;;;;;6218425;23;20238;-88
2021/03/17 02:52:10;;;;;;;19.33;9.43;;;;;;;;;;6218635;23;20175;-89
2021/03/17 02:55:15;;;;;;;16.27;8.73;;;;;;;;;;6218793;23;20230;-88
2021/03/17 02:58:20;;;;;;;18.17;9.30;;;;;;;;;;6218886;23;20217;-88
2021/03/17 03:01:25;;;;;;;17.70;9.27;;;;;;;;;;6218731;23;20220;-89
2021/03/17 03:04:30;;;;;;;25.50;10.20;;;;;;;;;;6218088;23;20183;-89
2021/03/17 03:07:36;;;;;;;18.60;9.13;;;;;;;;;;6220181;23;20175;-87
2021/03/17 03:10:42;;;;;;;22.20;9.90;;;;;;;;;;6219506;23;20301;-88
2021/03/17 03:13:47;;;;;;;24.03;9.23;;;;;;;;;;6201552;23;20257;-87
2021/03/17 03:16:53;;;;;;;19.47;10.13;;;;;;;;;;6219590;23;20177;-87
2021/03/17 03:19:59;;;;;;;19.07;9.70;;;;;;;;;;6202034;23;20294;-87
2021/03/17 03:23:05;;;;;;;20.67;10.20;;;;;;;;;;6219428;23;20206;-90
2021/03/17 03:26:09;;;;;;;21.60;9.30;;;;;;;;;;6202330;23;20540;-88
2021/03/17 03:29:14;;;;;;;21.33;9.13;;;;;;;;;;6201539;23;20234;-87
2021/03/17 03:32:19;;;;;;;25.10;9.53;;;;;;;;;;6219202;23;20218;-87
2021/03/17 03:35:24;;;;;;;21.63;9.30;;;;;;;;;;6218575;23;20218;-89
2021/03/17 03:38:30;;;;;;;21.37;9.20;;;;;;;;;;6217500;23;20175;-86
2021/03/17 03:41:34;;;;;;;20.63;9.40;;;;;;;;;;6201333;23;20170;-90
2021/03/17 03:44:38;;;;;;;19.13;8.63;;;;;;;;;;6218914;23;20290;-89
2021/03/17 03:47:43;;;;;;;18.07;8.80;;;;;;;;;;6219147;23;20170;-89
2021/03/17 03:50:49;;;;;;;22.60;9.10;;;;;;;;;;6218071;23;20215;-89
2021/03/17 03:54:05;;;;;;;23.90;9.83;;;;;;;;;;6218605;23;20171;-88
2021/03/17 03:57:12;;;;;;;21.13;9.27;;;;;;;;;;6218799;23;20163;-87
2021/03/17 04:00:19;;;;;;;22.00;9.43;;;;;;;;;;6200522;23;20234;-88
2021/03/17 04:03:24;;;;;;;22.60;9.50;;;;;;;;;;6218419;23;20170;-87
2021/03/17 04:06:28;;;;;;;24.13;10.00;;;;;;;;;;6217954;23;20175;-87
2021/03/17 04:09:37;;;;;;;18.47;9.33;;;;;;;;;;6201576;23;20190;-89
2021/03/17 04:12:42;;;;;;;22.10;9.83;;;;;;;;;;6230839;23;20406;-88
2021/03/17 04:15:47;;;;;;;24.03;10.60;;;;;;;;;;6218882;23;20303;-90
2021/03/17 04:18:52;;;;;;;24.67;10.30;;;;;;;;;;6219997;23;20163;-86
2021/03/17 04:21:56;;;;;;;18.23;9.07;;;;;;;;;;6218950;23;20679;-89
2021/03/17 04:25:02;;;;;;;24.33;10.40;;;;;;;;;;6217989;23;20171;-88
2021/03/17 04:28:08;;;;;;;23.37;9.77;;;;;;;;;;6217471;23;20298;-87
2021/03/17 04:31:12;;;;;;;26.43;10.40;;;;;;;;;;6217768;23;20175;-88
2021/03/17 04:34:16;;;;;;;20.37;9.27;;;;;;;;;;6220552;23;20214;-87
2021/03/17 04:37:21;;;;;;;19.73;9.63;;;;;;;;;;6220284;23;20617;-88
2021/03/17 04:40:27;;;;;;;19.83;9.60;;;;;;;;;;6220804;23;20163;-87
2021/03/17 04:43:32;;;;;;;27.93;11.27;;;;;;;;;;6222192;23;20206;-88
2021/03/17 04:46:36;;;;;;;27.50;9.70;;;;;;;;;;6220860;23;20183;-88
2021/03/17 04:49:43;;;;;;;19.53;9.07;;;;;;;;;;6221663;23;20191;-90
2021/03/17 04:52:48;;;;;;;22.10;9.83;;;;;;;;;;6221752;23;20247;-87
2021/03/17 04:55:53;;;;;;;20.80;9.23;;;;;;;;;;6220576;23;20203;-88
2021/03/17 04:59:00;;;;;;;22.80;10.97;;;;;;;;;;6221224;23;20249;-89
2021/03/17 05:02:12;;;;;;;23.37;10.20;;;;;;;;;;6218958;23;20176;-89
2021/03/17 05:05:17;;;;;;;24.70;10.43;;;;;;;;;;6220708;23;20217;-89
2021/03/17 05:08:22;;;;;;;21.40;10.07;;;;;;;;;;6222398;23;20198;-88
2021/03/17 05:11:28;;;;;;;21.50;9.57;;;;;;;;;;6221319;23;20194;-88
2021/03/17 05:14:33;;;;;;;19.73;9.63;;;;;;;;;;6220864;23;20207;-88
2021/03/17 05:17:38;;;;;;;18.50;9.47;;;;;;;;;;6223163;23;20195;-89
2021/03/17 05:20:44;;;;;;;27.20;10.13;;;;;;;;;;6222087;23;20553;-88
2021/03/17 05:23:49;;;;;;;23.37;10.07;;;;;;;;;;6204883;23;20187;-89
2021/03/17 05:26:55;;;;;;;22.40;9.47;;;;;;;;;;6222450;23;20643;-90
2021/03/17 05:30:00;;;;;;;25.70;10.93;;;;;;;;;;6222853;23;20199;-88
2021/03/17 05:33:06;;;;;;;23.57;10.20;;;;;;;;;;6204390;23;20175;-90
2021/03/17 05:36:11;;;;;;;22.67;9.57;;;;;;;;;;6220905;23;20170;-88
2021/03/17 05:39:16;;;;;;;22.60;9.43;;;;;;;;;;6204188;23;20537;-89
2021/03/17 05:42:21;;;;;;;20.27;8.83;;;;;;;;;;6222046;23;20222;-88
2021/03/17 05:45:26;;;;;;;23.23;10.37;;;;;;;;;;6221312;23;20251;-89
2021/03/17 05:48:32;;;;;;;22.27;9.93;;;;;;;;;;6203656;23;20219;-88
2021/03/17 05:51:36;;;;;;;22.77;9.20;;;;;;;;;;6221180;23;20622;-88
2021/03/17 05:54:41;;;;;;;22.40;10.07;;;;;;;;;;6204227;23;20223;-87
2021/03/17 05:57:46;;;;;;;22.23;9.63;;;;;;;;;;6203911;23;20194;-88
2021/03/17 06:00:51;;;;;;;22.67;10.10;;;;;;;;;;6221505;23;20221;-87
2021/03/17 06:03:56;;;;;;;20.90;9.97;;;;;;;;;;6203644;23;20194;-88
2021/03/17 06:07:01;;;;;;;24.67;9.43;;;;;;;;;;6218324;23;20215;-88
2021/03/17 06:10:06;;;;;;;21.30;9.77;;;;;;;;;;6220613;23;20210;-88
2021/03/17 06:13:12;;;;;;;22.93;10.10;;;;;;;;;;6222228;23;20780;-89
2021/03/17 06:16:17;;;;;;;21.93;10.17;;;;;;;;;;6202628;23;20295;-88
2021/03/17 06:19:27;;;;;;;24.83;9.10;;;;;;;;;;6203279;23;20191;-90
2021/03/17 06:22:32;;;;;;;22.07;9.57;;;;;;;;;;6220631;23;20171;-87
2021/03/17 06:25:37;;;;;;;18.83;8.43;;;;;;;;;;6220290;23;20219;-89
2021/03/17 06:28:43;;;;;;;21.73;9.77;;;;;;;;;;6224280;23;20697;-88
2021/03/17 06:31:48;;;;;;;23.17;9.60;;;;;;;;;;6222700;23;20175;-87
2021/03/17 06:34:53;;;;;;;20.90;9.83;;;;;;;;;;6223854;23;20212;-87
2021/03/17 06:37:58;;;;;;;25.37;9.63;;;;;;;;;;6223715;23;20202;-88
2021/03/17 06:41:02;;;;;;;24.30;10.87;;;;;;;;;;6223856;23;20203;-88
2021/03/17 06:44:07;;;;;;;26.57;9.77;;;;;;;;;;6209761;23;20186;-86
2021/03/17 06:47:18;;;;;;;23.40;10.70;;;;;;;;;;6223833;23;20167;-89
2021/03/17 06:50:32;;;;;;;25.20;10.50;;;;;;;;;;6206938;23;20214;-88
2021/03/17 06:53:38;;;;;;;23.93;10.10;;;;;;;;;;6205430;23;20171;-88
2021/03/17 06:56:43;;;;;;;23.10;10.00;;;;;;;;;;6202449;23;20194;-87
2021/03/17 06:59:50;;;;;;;21.50;9.90;;;;;;;;;;6204709;23;20167;-88
2021/03/17 07:02:56;;;;;;;23.10;9.87;;;;;;;;;;6221390;23;20544;-88
2021/03/17 07:06:10;;;;;;;24.50;10.83;;;;;;;;;;6224067;23;20327;-86
2021/03/17 07:09:15;;;;;;;23.27;9.63;;;;;;;;;;6222482;23;20802;-89
2021/03/17 07:12:20;;;;;;;21.40;10.30;;;;;;;;;;6230561;23;20194;-88
2021/03/17 07:15:25;;;;;;;22.30;10.20;;;;;;;;;;6222528;23;20277;-88
2021/03/17 07:18:31;;;;;;;23.53;10.10;;;;;;;;;;6221682;23;20167;-89
2021/03/17 07:21:37;;;;;;;23.33;9.47;;;;;;;;;;6226247;23;20553;-91
2021/03/17 07:24:43;;;;;;;20.20;9.53;;;;;;;;;;6229833;22;20179;-89
2021/03/17 07:27:56;;;;;;;23.33;9.97;;;;;;;;;;6225975;23;20179;-90
2021/03/17 07:31:13;;;;;;;22.17;9.40;;;;;;;;;;6224141;22;20194;-89
2021/03/17 07:34:19;;;;;;;18.97;9.23;;;;;;;;;;6223864;23;20626;-89
2021/03/17 07:37:25;;;;;;;19.53;10.03;;;;;;;;;;6224433;22;20175;-91
2021/03/17 07:40:30;;;;;;;21.87;9.43;;;;;;;;;;6223273;23;20164;-91
2021/03/17 07:43:36;;;;;;;19.80;9.23;;;;;;;;;;6223045;23;20498;-90
2021/03/17 07:46:42;;;;;;;30.90;11.00;;;;;;;;;;6223683;23;20673;-90
2021/03/17 07:49:48;;;;;;;19.97;9.50;;;;;;;;;;6223863;23;20207;-92
2021/03/17 07:52:57;;;;;;;17.30;8.60;;;;;;;;;;6223971;23;20167;-90
2021/03/17 07:56:02;;;;;;;19.97;8.30;;;;;;;;;;6229933;23;20203;-91
2021/03/17 07:59:07;;;;;;;16.47;7.93;;;;;;;;;;6229359;22;20179;-91
2021/03/17 08:02:14;;;;;;;21.97;9.13;;;;;;;;;;6230410;23;20199;-91
2021/03/17 08:05:20;;;;;;;22.77;8.87;;;;;;;;;;6230356;23;20167;-93
2021/03/17 08:08:25;;;;;;;21.20;8.30;;;;;;;;;;6229946;23;20191;-91
2021/03/17 08:11:30;;;;;;;20.87;8.10;;;;;;;;;;6230819;23;20194;-91
2021/03/17 08:14:35;;;;;;;19.50;8.67;;;;;;;;;;6231148;23;20557;-90
2021/03/17 08:17:41;;;;;;;22.53;8.67;;;;;;;;;;6231013;23;20170;-90
2021/03/17 08:20:48;;;;;;;20.73;8.33;;;;;;;;;;6231559;23;20162;-91
2021/03/17 08:23:53;;;;;;;19.27;8.37;;;;;;;;;;6231190;23;20167;-91
2021/03/17 08:26:58;;;;;;;19.10;8.97;;;;;;;;;;6214812;23;20203;-90
2021/03/17 08:30:08;;;;;;;20.00;8.37;;;;;;;;;;6231764;23;20195;-92
2021/03/17 11:57:49;;;;;;;6.30;3.20;;;;;;;;;;6191493;22;20194;-91
2021/03/17 12:00:54;;;;;;;4.97;1.87;;;;;;;;;;6227121;22;20166;-91
2021/03/17 12:04:01;;;;;;;7.07;1.83;;;;;;;;;;6206949;23;20175;-92
2021/03/17 12:07:08;;;;;;;12.17;2.77;;;;;;;;;;6224341;23;20231;-91
2021/03/17 12:10:12;;;;;;;6.77;2.57;;;;;;;;;;6224450;23;20190;-89
2021/03/17 12:13:18;;;;;;;5.15;1.70;;;;;;;;;;6224521;23;20167;-91
2021/03/17 12:16:22;;;;;;;3.35;1.30;;;;;;;;;;6225736;23;20179;-91
2021/03/17 12:19:29;;;;;;;6.72;1.83;;;;;;;;;;6224051;23;20199;-91
2021/03/17 12:22:33;;;;;;;10.18;1.80;;;;;;;;;;6205381;23;20198;-90
2021/03/17 12:28:33;;;;;;;5.97;1.80;;;;;;;;;;6219982;22;20458;-91
2021/03/17 12:40:28;;;;;;;3.90;1.70;;;;;;;;;;6224733;22;20200;-91
2021/03/17 12:43:33;;;;;;;3.33;1.33;;;;;;;;;;6222442;23;20171;-89
2021/03/17 12:46:38;;;;;;;9.70;1.40;;;;;;;;;;6223024;23;20174;-90
2021/03/17 12:49:43;;;;;;;7.60;1.50;;;;;;;;;;6206966;23;20646;-89
2021/03/17 12:52:48;;;;;;;7.88;1.48;;;;;;;;;;6224710;23;20171;-87
2021/03/17 12:55:52;;;;;;;6.20;1.80;;;;;;;;;;6223897;23;20167;-91
2021/03/17 12:58:58;;;;;;;6.47;2.05;;;;;;;;;;6225637;23;20166;-90
2021/03/17 13:02:02;;;;;;;5.68;1.88;;;;;;;;;;6230518;23;20183;-89
2021/03/17 13:05:08;;;;;;;12.38;1.88;;;;;;;;;;6223443;23;20182;-90
2021/03/17 13:08:13;;;;;;;7.13;1.40;;;;;;;;;;6207897;23;20179;-90
2021/03/17 13:11:18;;;;;;;4.85;1.67;;;;;;;;;;6226076;23;20187;-90
2021/03/17 13:14:25;;;;;;;6.03;1.40;;;;;;;;;;6226132;23;20373;-91
2021/03/17 23:01:09;;;;;;;13.50;6.37;;;;;;;;;;6176031;22;20204;-91
2021/03/17 23:04:52;;;;;;;13.70;6.10;;;;;;;;;;6225007;23;20247;-91
2021/03/17 23:07:57;;;;;;;13.20;5.87;;;;;;;;;;6225200;23;20176;-90
2021/03/17 23:11:05;;;;;;;12.67;5.73;;;;;;;;;;6225534;23;20190;-91
2021/03/17 23:14:11;;;;;;;14.80;5.57;;;;;;;;;;6224980;23;20302;-90
2021/03/17 23:17:17;;;;;;;11.70;5.63;;;;;;;;;;6224097;23;20210;-91
2021/03/17 23:20:22;;;;;;;13.03;5.93;;;;;;;;;;6224154;23;20163;-90
2021/03/17 23:23:27;;;;;;;15.63;6.40;;;;;;;;;;6224519;23;20167;-91
2021/03/17 23:26:33;;;;;;;17.57;6.70;;;;;;;;;;6223742;23;20544;-90
2021/03/17 23:29:39;;;;;;;16.10;6.77;;;;;;;;;;6223747;23;20190;-90
2021/03/17 23:32:45;;;;;;;15.97;6.67;;;;;;;;;;6223611;23;20246;-90
2021/03/17 23:35:52;;;;;;;16.40;6.17;;;;;;;;;;6222529;23;20170;-91
2021/03/17 23:38:57;;;;;;;16.70;6.17;;;;;;;;;;6207421;23;20626;-92
2021/03/17 23:42:03;;;;;;;14.37;5.40;;;;;;;;;;6224487;23;20210;-91
2021/03/17 23:45:08;;;;;;;15.00;6.07;;;;;;;;;;6205589;23;20175;-90
2021/03/17 23:48:15;;;;;;;12.90;5.67;;;;;;;;;;6223202;23;20182;-90
2021/03/17 23:51:20;;;;;;;11.30;5.20;;;;;;;;;;6223983;23;20175;-91
2021/03/17 23:54:27;;;;;;;12.17;5.67;;;;;;;;;;6210018;23;20191;-89
2021/03/17 23:57:32;;;;;;;12.17;5.63;;;;;;;;;;6233468;23;20170;-89
